createdAt,value
2018-03-20T00:02:19.133Z,16.37
2018-03-20T00:04:47.297Z,22.97
2018-03-20T00:07:15.684Z,8.30
2018-03-20T00:09:43.858Z,21.27
2018-03-20T00:12:12.031Z,17.90
2018-03-20T00:14:40.401Z,16.27
2018-03-20T00:17:09.091Z,27.93
2018-03-20T00:19:37.985Z,11.60
2018-03-20T00:22:06.560Z,18.40
2018-03-20T00:24:34.844Z,17.00
2018-03-20T00:27:03.224Z,23.63
2018-03-20T00:29:31.402Z,20.00
2018-03-20T00:31:59.775Z,28.87
2018-03-20T00:34:28.070Z,31.20
2018-03-20T00:36:56.521Z,10.63
2018-03-20T00:39:24.787Z,10.30
2018-03-20T00:41:53.010Z,7.23
2018-03-20T00:44:21.149Z,20.67
2018-03-20T00:46:49.639Z,11.83
2018-03-20T00:49:18.617Z,13.67
2018-03-20T00:51:47.302Z,1.83
2018-03-20T00:54:15.681Z,3.33
2018-03-20T00:56:44.270Z,2.50
2018-03-20T00:59:12.474Z,1.20
2018-03-20T01:01:41.225Z,2.93
2018-03-20T01:04:09.799Z,0.90
2018-03-20T01:06:38.071Z,1.00
2018-03-20T01:09:06.357Z,1.70
2018-03-20T01:11:34.842Z,1.23
2018-03-20T01:14:03.114Z,0.90
2018-03-20T01:16:31.393Z,1.20
2018-03-20T01:18:59.766Z,0.50
2018-03-20T01:21:27.942Z,3.60
2018-03-20T01:23:56.109Z,0.77
2018-03-20T01:26:24.489Z,0.40
2018-03-20T01:28:52.569Z,0.90
2018-03-20T01:31:21.666Z,0.50
2018-03-20T01:33:50.142Z,0.70
2018-03-20T01:36:18.891Z,0.93
2018-03-20T01:38:47.098Z,1.27
2018-03-20T01:41:15.479Z,1.60
2018-03-20T01:43:43.746Z,0.60
2018-03-20T01:46:12.337Z,1.90
2018-03-20T01:48:40.617Z,0.50
2018-03-20T01:51:08.989Z,0.40
2018-03-20T01:53:37.675Z,0.67
2018-03-20T01:56:06.065Z,0.60
2018-03-20T01:58:34.430Z,2.63
2018-03-20T02:01:02.960Z,4.60
2018-03-20T02:03:31.481Z,1.97
2018-03-20T02:05:59.873Z,2.30
2018-03-20T02:08:28.152Z,2.17
2018-03-20T02:10:56.628Z,1.60
2018-03-20T02:13:25.250Z,1.27
2018-03-20T02:15:53.982Z,1.13
2018-03-20T02:18:22.480Z,1.37
2018-03-20T02:20:50.961Z,1.10
2018-03-20T02:23:19.248Z,2.27
2018-03-20T02:25:47.613Z,0.90
2018-03-20T02:28:15.978Z,0.50
2018-03-20T02:30:44.259Z,1.57
2018-03-20T02:33:12.530Z,0.47
2018-03-20T02:35:41.138Z,1.00
2018-03-20T02:38:09.601Z,4.73
2018-03-20T02:40:37.745Z,2.20
2018-03-20T02:43:06.269Z,11.33
2018-03-20T02:45:34.418Z,1.17
2018-03-20T02:48:02.610Z,1.33
2018-03-20T02:50:30.782Z,0.60
2018-03-20T02:52:59.366Z,0.90
2018-03-20T02:55:27.743Z,1.03
2018-03-20T02:57:56.942Z,1.10
2018-03-20T03:00:25.408Z,0.80
2018-03-20T03:02:53.690Z,1.07
2018-03-20T03:05:22.278Z,0.77
2018-03-20T03:07:50.661Z,0.60
2018-03-20T03:10:19.133Z,4.30
2018-03-20T03:12:47.389Z,5.40
2018-03-20T03:15:15.890Z,4.23
2018-03-20T03:17:44.483Z,1.30
2018-03-20T03:20:12.405Z,0.60
2018-03-20T03:22:40.468Z,2.10
2018-03-20T03:25:08.888Z,0.90
2018-03-20T03:27:37.065Z,1.60
2018-03-20T03:30:05.053Z,0.90
2018-03-20T03:32:33.413Z,1.00
2018-03-20T03:35:01.893Z,1.00
2018-03-20T03:37:30.156Z,1.07
2018-03-20T03:39:58.540Z,0.70
2018-03-20T03:42:27.022Z,2.53
2018-03-20T03:44:55.278Z,7.70
2018-03-20T03:47:23.887Z,4.13
2018-03-20T03:49:52.278Z,3.80
2018-03-20T03:52:20.318Z,2.80
2018-03-20T03:54:48.601Z,1.50
2018-03-20T03:57:17.085Z,2.33
2018-03-20T03:59:45.564Z,2.30
2018-03-20T04:02:13.833Z,1.50
2018-03-20T04:04:42.428Z,1.80
2018-03-20T04:07:11.104Z,1.90
2018-03-20T04:09:39.230Z,2.93
2018-03-20T04:12:07.768Z,7.00
2018-03-20T04:14:36.232Z,6.70
2018-03-20T04:17:04.717Z,5.70
2018-03-20T04:19:33.113Z,6.17
2018-03-20T04:22:01.465Z,4.40
2018-03-20T04:24:29.856Z,4.50
2018-03-20T04:26:58.327Z,5.20
2018-03-20T04:29:26.708Z,4.33
2018-03-20T04:31:55.505Z,4.50
2018-03-20T04:34:23.985Z,4.20
2018-03-20T04:36:52.052Z,5.03
2018-03-20T04:39:20.845Z,18.63
2018-03-20T04:41:49.059Z,6.13
2018-03-20T04:44:17.402Z,6.67
2018-03-20T04:46:45.767Z,3.57
2018-03-20T04:49:14.205Z,3.37
2018-03-20T04:51:42.738Z,6.70
2018-03-20T04:54:10.821Z,93.17
2018-03-20T04:56:39.290Z,61.90
2018-03-20T04:59:07.665Z,10.80
2018-03-20T05:01:35.937Z,7.23
2018-03-20T05:04:04.538Z,10.37
2018-03-20T05:06:33.003Z,4.97
2018-03-20T05:09:01.485Z,16.07
2018-03-20T05:11:29.981Z,17.57
2018-03-20T05:13:58.346Z,20.73
2018-03-20T05:16:26.822Z,7.37
2018-03-20T05:22:24.892Z,17.43
2018-03-20T05:24:53.195Z,6.77
2018-03-20T05:27:21.873Z,1.60
2018-03-20T05:29:50.465Z,18.10
2018-03-20T05:32:18.764Z,2.00
2018-03-20T05:34:47.227Z,0.97
2018-03-20T05:37:15.797Z,1.73
2018-03-20T05:39:44.322Z,1.10
2018-03-20T05:42:12.659Z,32.53
2018-03-20T05:44:41.022Z,4.97
2018-03-20T05:47:26.296Z,2.40
2018-03-20T05:50:14.641Z,4.33
2018-03-20T05:52:43.137Z,16.60
2018-03-20T05:55:11.731Z,3.63
2018-03-20T05:57:40.137Z,7.00
2018-03-20T06:00:09.596Z,2.43
2018-03-20T06:02:37.669Z,1.47
2018-03-20T06:05:06.247Z,4.20
2018-03-20T06:07:34.517Z,12.20
2018-03-20T06:10:03.022Z,16.90
2018-03-20T06:12:31.571Z,23.07
2018-03-20T06:14:59.801Z,36.50
2018-03-20T06:17:28.145Z,37.07
2018-03-20T06:19:56.729Z,21.27
2018-03-20T06:28:20.028Z,3.87
2018-03-20T06:30:48.716Z,6.70
2018-03-20T06:33:17.386Z,3.50
2018-03-20T06:35:46.241Z,6.00
2018-03-20T06:38:14.875Z,6.87
2018-03-20T06:40:43.467Z,9.73
2018-03-20T06:43:12.228Z,9.60
2018-03-20T06:45:40.516Z,10.67
2018-03-20T06:48:09.405Z,3.60
2018-03-20T06:50:38.286Z,6.17
2018-03-20T06:53:06.698Z,8.87
2018-03-20T06:55:35.261Z,5.53
2018-03-20T06:58:03.506Z,1.60
2018-03-20T07:00:31.914Z,1.50
2018-03-20T07:03:00.806Z,1.07
2018-03-20T07:05:29.194Z,3.50
2018-03-20T07:07:57.760Z,1.97
2018-03-20T07:10:26.333Z,2.20
2018-03-20T07:12:54.726Z,1.50
2018-03-20T07:15:23.410Z,2.60
2018-03-20T07:17:51.895Z,0.97
2018-03-20T07:20:20.347Z,4.43
2018-03-20T07:22:48.797Z,1.27
2018-03-20T07:25:17.538Z,2.10
2018-03-20T07:27:46.221Z,0.70
2018-03-20T07:30:14.591Z,0.70
2018-03-20T07:32:43.281Z,0.77
2018-03-20T07:35:11.205Z,4.03
2018-03-20T07:37:39.938Z,3.53
2018-03-20T07:40:08.298Z,0.70
2018-03-20T07:42:36.372Z,0.80
2018-03-20T07:45:04.853Z,0.70
2018-03-20T07:47:32.923Z,4.20
2018-03-20T07:50:01.524Z,1.03
2018-03-20T07:52:30.007Z,0.83
2018-03-20T07:54:58.582Z,4.97
2018-03-20T07:57:27.166Z,0.97
2018-03-20T07:59:55.837Z,5.20
2018-03-20T08:02:24.219Z,3.80
2018-03-20T08:04:52.921Z,2.50
2018-03-20T08:07:21.601Z,1.97
2018-03-20T08:09:49.968Z,7.47
2018-03-20T08:12:18.764Z,0.87
2018-03-20T08:14:47.141Z,1.23
2018-03-20T08:17:15.816Z,5.20
2018-03-20T08:19:43.741Z,2.60
2018-03-20T08:22:11.664Z,3.30
2018-03-20T08:24:39.625Z,6.10
2018-03-20T08:27:07.534Z,1.27
2018-03-20T08:29:35.875Z,0.50
2018-03-20T08:32:03.837Z,0.70
2018-03-20T08:34:31.833Z,9.00
2018-03-20T08:36:59.814Z,7.87
2018-03-20T08:39:27.825Z,3.47
2018-03-20T08:41:55.787Z,2.13
2018-03-20T08:44:23.812Z,1.77
2018-03-20T08:46:51.810Z,0.77
2018-03-20T08:49:19.778Z,1.03
2018-03-20T08:51:47.745Z,3.47
2018-03-20T08:54:15.675Z,1.40
2018-03-20T08:56:43.643Z,1.90
2018-03-20T08:59:11.594Z,1.83
2018-03-20T09:01:39.507Z,7.93
2018-03-20T09:04:07.588Z,7.27
2018-03-20T09:06:35.600Z,1.27
2018-03-20T09:09:03.619Z,1.70
2018-03-20T09:11:31.523Z,1.13
2018-03-20T09:13:59.481Z,4.10
2018-03-20T09:16:27.565Z,1.90
2018-03-20T09:18:55.943Z,1.20
2018-03-20T09:21:24.254Z,1.63
2018-03-20T09:23:52.813Z,0.50
2018-03-20T09:26:21.615Z,0.90
2018-03-20T09:28:50.290Z,0.70
2018-03-20T09:31:18.666Z,0.50
2018-03-20T09:33:47.246Z,0.50
2018-03-20T09:36:15.470Z,1.10
2018-03-20T09:38:44.000Z,2.60
2018-03-20T09:41:12.490Z,0.97
2018-03-20T09:43:41.054Z,1.37
2018-03-20T09:46:09.440Z,3.03
2018-03-20T09:48:37.930Z,5.07
2018-03-20T09:51:06.301Z,0.90
2018-03-20T09:53:34.687Z,8.00
2018-03-20T09:56:03.035Z,3.97
2018-03-20T09:58:31.440Z,0.50
2018-03-20T10:01:00.017Z,0.60
2018-03-20T10:03:28.394Z,3.27
2018-03-20T10:05:56.977Z,4.93
2018-03-20T10:08:25.345Z,0.70
2018-03-20T10:10:54.032Z,0.67
2018-03-20T10:13:22.629Z,2.73
2018-03-20T10:15:51.219Z,1.43
2018-03-20T10:18:19.602Z,23.33
2018-03-20T10:20:48.066Z,0.70
2018-03-20T10:23:15.956Z,1.23
2018-03-20T10:25:43.860Z,2.40
2018-03-20T10:28:11.818Z,3.00
2018-03-20T10:30:39.758Z,2.60
2018-03-20T10:33:08.017Z,11.10
2018-03-20T10:35:36.434Z,14.97
2018-03-20T10:38:04.410Z,5.07
2018-03-20T10:40:32.619Z,1.03
2018-03-20T10:43:01.325Z,0.60
2018-03-20T10:45:29.261Z,1.73
2018-03-20T10:47:57.206Z,0.77
2018-03-20T10:50:25.632Z,0.97
2018-03-20T10:52:54.022Z,5.00
2018-03-20T10:55:22.494Z,2.20
2018-03-20T10:57:51.074Z,0.93
2018-03-20T11:00:24.913Z,1.30
2018-03-20T11:02:53.676Z,2.50
2018-03-20T11:05:21.624Z,5.90
2018-03-20T11:07:49.601Z,0.97
2018-03-20T11:10:17.533Z,0.77
2018-03-20T11:12:45.510Z,2.50
2018-03-20T11:15:13.455Z,2.30
2018-03-20T11:17:41.334Z,1.10
2018-03-20T11:20:09.278Z,4.67
2018-03-20T11:22:37.249Z,0.70
2018-03-20T11:25:05.235Z,2.50
2018-03-20T11:27:33.243Z,1.20
2018-03-20T11:30:01.541Z,0.70
2018-03-20T11:32:30.006Z,0.40
2018-03-20T11:34:58.501Z,0.60
2018-03-20T11:37:26.443Z,1.37
2018-03-20T11:39:54.378Z,1.27
2018-03-20T11:42:22.339Z,0.67
2018-03-20T11:44:50.296Z,1.27
2018-03-20T11:47:18.246Z,0.70
2018-03-20T11:49:46.140Z,0.60
2018-03-20T11:52:14.097Z,0.80
2018-03-20T11:54:42.043Z,0.50
2018-03-20T11:57:10.007Z,0.63
2018-03-20T11:59:37.837Z,0.40
2018-03-20T12:02:05.766Z,0.70
2018-03-20T12:04:33.778Z,0.90
2018-03-20T12:07:02.486Z,3.73
2018-03-20T12:09:51.953Z,3.60
2018-03-20T12:12:20.328Z,1.03
2018-03-20T12:14:48.813Z,2.57
2018-03-20T12:17:17.480Z,3.33
2018-03-20T12:19:45.918Z,1.60
2018-03-20T12:22:14.562Z,4.27
2018-03-20T12:24:43.031Z,2.30
2018-03-20T12:27:11.631Z,1.00
2018-03-20T12:29:40.005Z,3.23
2018-03-20T12:32:08.586Z,11.20
2018-03-20T12:34:36.797Z,3.53
2018-03-20T12:37:05.649Z,1.00
2018-03-20T12:39:34.329Z,2.73
2018-03-20T12:42:02.591Z,8.50
2018-03-20T12:44:31.201Z,0.53
2018-03-20T12:47:00.181Z,0.73
2018-03-20T12:49:28.562Z,0.70
2018-03-20T12:51:57.041Z,0.90
2018-03-20T12:54:25.621Z,4.83
2018-03-20T12:56:54.213Z,8.00
2018-03-20T12:59:22.807Z,0.90
2018-03-20T13:01:50.847Z,0.77
2018-03-20T13:04:19.157Z,1.00
2018-03-20T13:06:47.095Z,2.43
2018-03-20T13:09:15.095Z,3.50
2018-03-20T13:11:43.093Z,2.00
2018-03-20T13:14:11.529Z,1.43
2018-03-20T13:16:40.040Z,2.30
2018-03-20T13:19:08.473Z,5.27
2018-03-20T13:21:37.260Z,2.80
2018-03-20T13:24:05.500Z,1.20
2018-03-20T13:26:34.230Z,5.70
2018-03-20T13:29:02.726Z,2.10
2018-03-20T13:31:30.982Z,1.27
2018-03-20T13:33:59.466Z,3.23
2018-03-20T13:36:28.040Z,1.20
2018-03-20T13:38:56.832Z,1.53
2018-03-20T13:41:25.312Z,4.00
2018-03-20T13:43:53.529Z,7.27
2018-03-20T13:46:21.972Z,6.47
2018-03-20T13:48:50.559Z,6.50
2018-03-20T13:51:19.122Z,6.27
2018-03-20T13:53:47.518Z,2.87
2018-03-20T13:56:15.993Z,1.37
2018-03-20T13:58:44.523Z,3.70
2018-03-20T14:01:12.955Z,3.03
2018-03-20T14:03:41.847Z,2.43
2018-03-20T14:06:10.438Z,4.33
2018-03-20T14:08:38.917Z,5.20
2018-03-20T14:11:07.286Z,28.07
2018-03-20T14:13:35.755Z,157.47
2018-03-20T14:16:04.251Z,2.93
2018-03-20T14:18:32.729Z,1.87
2018-03-20T14:21:01.058Z,0.70
2018-03-20T14:23:29.686Z,0.70
2018-03-20T14:25:58.065Z,2.43
2018-03-20T14:28:26.349Z,2.70
2018-03-20T14:30:54.622Z,6.00
2018-03-20T14:33:23.390Z,2.47
2018-03-20T14:35:51.894Z,0.97
2018-03-20T14:38:20.158Z,2.77
2018-03-20T14:40:48.728Z,1.77
2018-03-20T14:43:17.223Z,0.97
2018-03-20T14:45:45.807Z,1.47
2018-03-20T14:48:14.196Z,2.87
2018-03-20T14:50:42.674Z,2.03
2018-03-20T14:53:11.188Z,12.00
2018-03-20T14:55:39.730Z,16.70
2018-03-20T14:58:08.205Z,11.83
2018-03-20T15:00:36.789Z,6.80
2018-03-20T15:03:05.284Z,13.37
2018-03-20T15:05:33.848Z,23.03
2018-03-20T15:08:02.229Z,3.67
2018-03-20T15:10:30.714Z,1.23
2018-03-20T15:12:59.299Z,1.50
2018-03-20T15:15:27.877Z,0.90
2018-03-20T15:17:56.456Z,1.60
2018-03-20T15:20:24.790Z,52.97
2018-03-20T15:22:53.322Z,2.20
2018-03-20T15:25:21.911Z,20.43
2018-03-20T15:27:50.290Z,26.07
2018-03-20T15:30:18.862Z,7.73
2018-03-20T15:32:47.652Z,36.53
2018-03-20T15:35:16.240Z,3.93
2018-03-20T15:37:44.638Z,8.00
2018-03-20T15:40:13.496Z,3.40
2018-03-20T15:42:42.181Z,4.70
2018-03-20T15:45:10.576Z,24.60
2018-03-20T15:47:38.947Z,16.23
2018-03-20T15:50:07.723Z,23.33
2018-03-20T15:52:36.043Z,12.30
2018-03-20T15:55:04.367Z,14.80
2018-03-20T15:57:33.257Z,12.10
2018-03-20T16:00:01.515Z,14.43
2018-03-20T16:02:30.327Z,5.30
2018-03-20T16:04:58.802Z,19.87
2018-03-20T16:07:27.298Z,11.83
2018-03-20T16:09:56.097Z,11.23
2018-03-20T16:12:24.456Z,7.13
2018-03-20T16:14:52.891Z,8.00
2018-03-20T16:17:21.520Z,41.40
2018-03-20T16:19:49.736Z,65.33
2018-03-20T16:22:18.590Z,51.17
2018-03-20T16:24:46.772Z,2.23
2018-03-20T16:27:15.346Z,1.10
2018-03-20T16:29:43.715Z,6.23
2018-03-20T16:32:12.337Z,12.40
2018-03-20T16:34:40.990Z,7.70
2018-03-20T16:37:09.764Z,5.27
2018-03-20T16:39:38.297Z,5.33
2018-03-20T16:42:06.838Z,6.13
2018-03-20T16:44:35.839Z,3.03
2018-03-20T16:47:04.186Z,21.70
2018-03-20T16:49:32.789Z,16.30
2018-03-20T16:52:01.582Z,11.53
2018-03-20T16:54:30.060Z,17.17
2018-03-20T16:56:58.235Z,7.67
2018-03-20T16:59:26.720Z,31.03
2018-03-20T17:01:55.300Z,11.40
2018-03-20T17:04:23.882Z,3.90
2018-03-20T17:06:52.257Z,17.53
2018-03-20T17:09:20.657Z,74.70
2018-03-20T17:11:49.121Z,96.50
2018-03-20T17:14:17.476Z,46.73
2018-03-20T17:16:45.769Z,86.97
2018-03-20T17:19:14.048Z,63.57
2018-03-20T17:21:42.732Z,196.83
2018-03-20T17:24:11.214Z,140.87
2018-03-20T17:26:39.650Z,175.57
2018-03-20T17:29:08.093Z,141.30
2018-03-20T17:31:36.970Z,113.30
2018-03-20T17:34:05.194Z,104.63
2018-03-20T17:36:33.613Z,156.43
2018-03-20T17:39:02.712Z,125.00
2018-03-20T17:41:31.397Z,76.50
2018-03-20T17:43:59.991Z,65.20
2018-03-20T17:46:28.616Z,68.17
2018-03-20T17:48:57.350Z,69.37
2018-03-20T17:51:25.930Z,64.53
2018-03-20T17:53:54.762Z,57.23
2018-03-20T17:56:23.198Z,116.30
2018-03-20T17:58:51.787Z,101.47
2018-03-20T18:01:20.348Z,76.50
2018-03-20T18:03:48.847Z,81.17
2018-03-20T18:06:17.426Z,74.47
2018-03-20T18:08:46.008Z,89.80
2018-03-20T18:11:14.494Z,97.93
2018-03-20T18:13:42.944Z,120.37
2018-03-20T18:16:11.448Z,93.00
2018-03-20T18:18:39.932Z,93.60
2018-03-20T18:21:08.474Z,85.67
2018-03-20T18:23:36.894Z,71.17
2018-03-20T18:26:05.876Z,52.80
2018-03-20T18:28:34.274Z,55.50
2018-03-20T18:31:02.956Z,46.97
2018-03-20T18:33:31.635Z,55.07
2018-03-20T18:35:59.654Z,51.70
2018-03-20T18:38:28.593Z,52.33
2018-03-20T18:40:57.278Z,53.87
2018-03-20T18:43:25.757Z,48.90
2018-03-20T18:45:54.228Z,55.00
2018-03-20T18:48:22.822Z,62.33
2018-03-20T18:50:51.515Z,51.63
2018-03-20T18:53:19.687Z,40.07
2018-03-20T18:55:47.953Z,54.30
2018-03-20T18:58:16.350Z,46.27
2018-03-20T19:00:44.923Z,52.03
2018-03-20T19:03:13.401Z,56.87
2018-03-20T19:05:41.809Z,63.40
2018-03-20T19:08:10.365Z,76.83
2018-03-20T19:10:38.899Z,76.17
2018-03-20T19:13:07.209Z,47.47
2018-03-20T19:15:35.706Z,33.73
2018-03-20T19:18:04.369Z,41.27
2018-03-20T19:20:32.920Z,59.43
2018-03-20T19:23:01.463Z,58.27
2018-03-20T19:25:30.024Z,61.60
2018-03-20T19:27:58.515Z,43.77
2018-03-20T19:30:26.985Z,33.53
2018-03-20T19:32:55.248Z,15.93
2018-03-20T19:35:23.846Z,14.17
2018-03-20T19:37:52.629Z,12.63
2018-03-20T19:40:21.212Z,19.83
2018-03-20T19:42:49.629Z,10.90
2018-03-20T19:45:18.074Z,22.37
2018-03-20T19:47:46.652Z,47.67
2018-03-20T19:50:15.554Z,45.87
2018-03-20T19:52:43.925Z,37.03
2018-03-20T19:55:12.306Z,30.87
2018-03-20T19:57:40.868Z,22.60
2018-03-20T20:00:09.144Z,31.07
2018-03-20T20:02:37.647Z,58.53
2018-03-20T20:05:06.141Z,43.80
2018-03-20T20:07:34.711Z,36.50
2018-03-20T20:10:03.392Z,34.97
2018-03-20T20:12:31.770Z,40.93
2018-03-20T20:15:00.354Z,48.23
2018-03-20T20:17:28.940Z,59.27
2018-03-20T20:19:57.419Z,63.30
2018-03-20T20:22:25.890Z,47.50
2018-03-20T20:24:54.375Z,60.13
2018-03-20T20:27:22.654Z,83.63
2018-03-20T20:29:51.033Z,83.93
2018-03-20T20:32:19.617Z,62.43
2018-03-20T20:34:48.098Z,56.67
2018-03-20T20:37:16.490Z,70.17
2018-03-20T20:39:45.079Z,67.87
2018-03-20T20:42:13.535Z,65.23
2018-03-20T20:44:41.904Z,41.03
2018-03-20T20:47:10.494Z,37.23
2018-03-20T20:49:38.972Z,26.27
2018-03-20T20:52:07.752Z,27.60
2018-03-20T20:54:36.241Z,19.70
2018-03-20T20:57:04.820Z,19.77
2018-03-20T20:59:33.300Z,11.47
2018-03-20T21:02:01.891Z,11.23
2018-03-20T21:04:29.864Z,8.20
2018-03-20T21:06:57.877Z,26.57
2018-03-20T21:09:26.185Z,37.93
2018-03-20T21:11:54.581Z,29.40
2018-03-20T21:14:23.162Z,48.40
2018-03-20T21:16:51.750Z,34.73
2018-03-20T21:19:20.132Z,31.17
2018-03-20T21:21:48.604Z,31.50
2018-03-20T21:24:17.290Z,28.83
2018-03-20T21:26:45.565Z,33.80
2018-03-20T21:29:14.149Z,22.77
2018-03-20T21:31:43.091Z,26.50
2018-03-20T21:34:11.604Z,22.83
2018-03-20T21:36:39.899Z,21.83
2018-03-20T21:39:08.477Z,50.83
2018-03-20T21:41:36.852Z,31.10
2018-03-20T21:44:05.343Z,33.60
2018-03-20T21:46:33.904Z,37.43
2018-03-20T21:49:02.402Z,36.70
2018-03-20T21:51:30.682Z,38.17
2018-03-20T21:53:59.098Z,32.23
2018-03-20T21:56:27.732Z,21.40
2018-03-20T21:58:55.961Z,34.37
2018-03-20T22:01:24.504Z,37.47
2018-03-20T22:03:53.381Z,22.50
2018-03-20T22:06:22.182Z,20.40
2018-03-20T22:08:50.964Z,30.77
2018-03-20T22:11:19.437Z,36.17
2018-03-20T22:13:47.708Z,42.03
2018-03-20T22:16:16.093Z,29.93
2018-03-20T22:18:44.370Z,32.77
2018-03-20T22:21:13.056Z,48.60
2018-03-20T22:23:41.538Z,51.47
2018-03-20T22:26:09.748Z,48.17
2018-03-20T22:28:38.313Z,45.77
2018-03-20T22:31:06.862Z,24.67
2018-03-20T22:33:35.516Z,21.93
2018-03-20T22:36:03.942Z,49.63
2018-03-20T22:38:32.925Z,39.73
2018-03-20T22:41:01.323Z,39.10
2018-03-20T22:43:29.588Z,40.53
2018-03-20T22:45:57.961Z,30.63
2018-03-20T22:48:26.243Z,27.80
2018-03-20T22:50:54.826Z,42.80
2018-03-20T22:53:22.996Z,55.80
2018-03-20T22:55:51.834Z,21.87
2018-03-20T22:58:20.266Z,20.50
2018-03-20T23:00:48.630Z,19.07
2018-03-20T23:03:17.410Z,21.43
2018-03-20T23:05:45.863Z,23.80
2018-03-20T23:51:54.302Z,4.10
2018-03-20T23:54:22.781Z,3.60
2018-03-20T23:56:51.097Z,4.07
2018-03-20T23:59:19.542Z,4.27
